sensor_id;sensor_type;location;lat;lon;timestamp;P1;durP1;ratioP1;P2;durP2;ratioP2
31368;SDS011;18004;48.416;10.066;2024-03-23T00:55:40;2.78;;;2.22;;
31368;SDS011;18004;48.416;10.066;2024-03-23T00:58:06;3.75;;;2.13;;
31368;SDS011;18004;48.416;10.066;2024-03-23T01:00:32;10.55;;;2.33;;
31368;SDS011;18004;48.416;10.066;2024-03-23T01:02:58;3.00;;;2.40;;
31368;SDS011;18004;48.416;10.066;2024-03-23T01:05:24;2.58;;;2.25;;
31368;SDS011;18004;48.416;10.066;2024-03-23T01:07:50;3.83;;;2.40;;
31368;SDS011;18004;48.416;10.066;2024-03-23T01:10:15;4.10;;;2.17;;
31368;SDS011;18004;48.416;10.066;2024-03-23T01:12:41;4.03;;;2.25;;
31368;SDS011;18004;48.416;10.066;2024-03-23T01:15:07;4.47;;;2.30;;
31368;SDS011;18004;48.416;10.066;2024-03-23T01:17:33;7.43;;;2.75;;
31368;SDS011;18004;48.416;10.066;2024-03-23T01:19:59;4.78;;;2.63;;
31368;SDS011;18004;48.416;10.066;2024-03-23T01:22:25;2.08;;;1.88;;
31368;SDS011;18004;48.416;10.066;2024-03-23T01:24:51;5.63;;;1.77;;
31368;SDS011;18004;48.416;10.066;2024-03-23T01:27:16;5.15;;;2.45;;
31368;SDS011;18004;48.416;10.066;2024-03-23T01:29:43;2.47;;;2.15;;
31368;SDS011;18004;48.416;10.066;2024-03-23T01:32:09;2.85;;;1.83;;
31368;SDS011;18004;48.416;10.066;2024-03-23T01:34:35;2.50;;;1.90;;
31368;SDS011;18004;48.416;10.066;2024-03-23T01:37:00;2.50;;;2.22;;
31368;SDS011;18004;48.416;10.066;2024-03-23T01:39:26;4.15;;;2.40;;
31368;SDS011;18004;48.416;10.066;2024-03-23T01:41:52;6.80;;;2.38;;
31368;SDS011;18004;48.416;10.066;2024-03-23T01:44:18;5.30;;;2.33;;
31368;SDS011;18004;48.416;10.066;2024-03-23T01:46:44;4.05;;;2.22;;
31368;SDS011;18004;48.416;10.066;2024-03-23T01:49:10;3.20;;;2.25;;
31368;SDS011;18004;48.416;10.066;2024-03-23T01:51:36;3.90;;;1.90;;
31368;SDS011;18004;48.416;10.066;2024-03-23T01:54:03;8.70;;;2.40;;
31368;SDS011;18004;48.416;10.066;2024-03-23T01:56:29;4.47;;;2.38;;
31368;SDS011;18004;48.416;10.066;2024-03-23T01:58:58;3.75;;;2.30;;
31368;SDS011;18004;48.416;10.066;2024-03-23T02:01:25;3.78;;;1.95;;
31368;SDS011;18004;48.416;10.066;2024-03-23T02:03:51;4.15;;;2.38;;
31368;SDS011;18004;48.416;10.066;2024-03-23T02:06:17;5.10;;;2.40;;
31368;SDS011;18004;48.416;10.066;2024-03-23T02:08:43;5.28;;;2.33;;
31368;SDS011;18004;48.416;10.066;2024-03-23T02:11:09;7.20;;;2.60;;
31368;SDS011;18004;48.416;10.066;2024-03-23T02:13:35;4.70;;;2.08;;
31368;SDS011;18004;48.416;10.066;2024-03-23T02:16:01;2.25;;;1.73;;
31368;SDS011;18004;48.416;10.066;2024-03-23T02:18:27;2.67;;;2.03;;
31368;SDS011;18004;48.416;10.066;2024-03-23T02:20:52;2.25;;;1.65;;
31368;SDS011;18004;48.416;10.066;2024-03-23T02:23:18;5.50;;;1.95;;
31368;SDS011;18004;48.416;10.066;2024-03-23T02:25:44;3.17;;;2.03;;
31368;SDS011;18004;48.416;10.066;2024-03-23T02:28:10;7.93;;;2.42;;
31368;SDS011;18004;48.416;10.066;2024-03-23T02:30:36;2.88;;;1.83;;
31368;SDS011;18004;48.416;10.066;2024-03-23T02:33:03;2.97;;;2.05;;
31368;SDS011;18004;48.416;10.066;2024-03-23T02:35:29;2.45;;;1.75;;
31368;SDS011;18004;48.416;10.066;2024-03-23T02:37:55;3.33;;;1.98;;
31368;SDS011;18004;48.416;10.066;2024-03-23T02:40:25;1.95;;;1.75;;
31368;SDS011;18004;48.416;10.066;2024-03-23T02:42:51;3.28;;;2.10;;
31368;SDS011;18004;48.416;10.066;2024-03-23T02:45:17;3.25;;;1.88;;
31368;SDS011;18004;48.416;10.066;2024-03-23T02:47:43;2.92;;;1.98;;
31368;SDS011;18004;48.416;10.066;2024-03-23T02:50:09;3.75;;;2.25;;
31368;SDS011;18004;48.416;10.066;2024-03-23T02:52:35;2.90;;;2.05;;
31368;SDS011;18004;48.416;10.066;2024-03-23T02:55:01;3.25;;;1.80;;
31368;SDS011;18004;48.416;10.066;2024-03-23T02:57:28;2.97;;;1.92;;
31368;SDS011;18004;48.416;10.066;2024-03-23T02:59:54;8.65;;;1.92;;
31368;SDS011;18004;48.416;10.066;2024-03-23T03:02:20;2.90;;;1.83;;
31368;SDS011;18004;48.416;10.066;2024-03-23T03:04:46;4.47;;;1.90;;
31368;SDS011;18004;48.416;10.066;2024-03-23T03:07:12;3.00;;;1.98;;
31368;SDS011;18004;48.416;10.066;2024-03-23T03:09:38;4.32;;;1.80;;
31368;SDS011;18004;48.416;10.066;2024-03-23T03:12:05;5.38;;;1.70;;
31368;SDS011;18004;48.416;10.066;2024-03-23T03:14:31;4.32;;;2.08;;
31368;SDS011;18004;48.416;10.066;2024-03-23T03:16:57;2.63;;;1.90;;
31368;SDS011;18004;48.416;10.066;2024-03-23T03:19:23;3.42;;;1.80;;
31368;SDS011;18004;48.416;10.066;2024-03-23T03:21:49;1.95;;;1.58;;
31368;SDS011;18004;48.416;10.066;2024-03-23T03:24:14;2.83;;;1.80;;
31368;SDS011;18004;48.416;10.066;2024-03-23T03:26:40;3.75;;;1.52;;
31368;SDS011;18004;48.416;10.066;2024-03-23T03:29:06;2.85;;;1.83;;
31368;SDS011;18004;48.416;10.066;2024-03-23T03:31:32;3.83;;;1.92;;
31368;SDS011;18004;48.416;10.066;2024-03-23T03:33:57;3.70;;;1.88;;
31368;SDS011;18004;48.416;10.066;2024-03-23T03:36:23;2.42;;;1.67;;
31368;SDS011;18004;48.416;10.066;2024-03-23T03:38:49;4.80;;;1.63;;
31368;SDS011;18004;48.416;10.066;2024-03-23T03:41:15;2.13;;;1.20;;
31368;SDS011;18004;48.416;10.066;2024-03-23T03:43:41;2.35;;;1.80;;
31368;SDS011;18004;48.416;10.066;2024-03-23T03:46:07;3.20;;;1.73;;
31368;SDS011;18004;48.416;10.066;2024-03-23T03:48:36;5.82;;;1.92;;
31368;SDS011;18004;48.416;10.066;2024-03-23T03:51:02;2.42;;;1.63;;
31368;SDS011;18004;48.416;10.066;2024-03-23T03:53:28;2.45;;;1.60;;
31368;SDS011;18004;48.416;10.066;2024-03-23T03:55:54;3.90;;;1.55;;
31368;SDS011;18004;48.416;10.066;2024-03-23T03:58:20;1.80;;;1.58;;
31368;SDS011;18004;48.416;10.066;2024-03-23T04:00:45;1.88;;;1.52;;
31368;SDS011;18004;48.416;10.066;2024-03-23T04:03:11;2.38;;;1.80;;
31368;SDS011;18004;48.416;10.066;2024-03-23T04:05:37;4.20;;;1.80;;
31368;SDS011;18004;48.416;10.066;2024-03-23T04:08:03;1.98;;;1.80;;
31368;SDS011;18004;48.416;10.066;2024-03-23T04:10:29;2.72;;;1.58;;
31368;SDS011;18004;48.416;10.066;2024-03-23T04:12:55;2.67;;;1.85;;
31368;SDS011;18004;48.416;10.066;2024-03-23T04:15:21;4.82;;;2.10;;
31368;SDS011;18004;48.416;10.066;2024-03-23T04:17:47;4.50;;;2.17;;
31368;SDS011;18004;48.416;10.066;2024-03-23T04:20:13;3.20;;;1.95;;
31368;SDS011;18004;48.416;10.066;2024-03-23T04:22:42;2.50;;;1.80;;
31368;SDS011;18004;48.416;10.066;2024-03-23T04:25:10;2.70;;;2.15;;
31368;SDS011;18004;48.416;10.066;2024-03-23T04:27:36;3.65;;;1.80;;
31368;SDS011;18004;48.416;10.066;2024-03-23T04:30:03;1.40;;;1.30;;
31368;SDS011;18004;48.416;10.066;2024-03-23T04:32:34;6.75;;;1.92;;
31368;SDS011;18004;48.416;10.066;2024-03-23T04:35:00;2.05;;;1.52;;
31368;SDS011;18004;48.416;10.066;2024-03-23T04:37:26;5.45;;;1.70;;
31368;SDS011;18004;48.416;10.066;2024-03-23T04:39:52;4.97;;;1.77;;
31368;SDS011;18004;48.416;10.066;2024-03-23T04:42:17;2.72;;;1.48;;
31368;SDS011;18004;48.416;10.066;2024-03-23T04:44:43;3.53;;;2.03;;
31368;SDS011;18004;48.416;10.066;2024-03-23T04:47:10;3.10;;;1.90;;
31368;SDS011;18004;48.416;10.066;2024-03-23T04:49:37;6.85;;;1.77;;
31368;SDS011;18004;48.416;10.066;2024-03-23T04:52:03;3.08;;;1.70;;
31368;SDS011;18004;48.416;10.066;2024-03-23T04:54:30;6.28;;;1.73;;
31368;SDS011;18004;48.416;10.066;2024-03-23T04:56:57;6.00;;;2.03;;
31368;SDS011;18004;48.416;10.066;2024-03-23T04:59:23;3.75;;;2.15;;
31368;SDS011;18004;48.416;10.066;2024-03-23T05:01:49;4.82;;;2.22;;
31368;SDS011;18004;48.416;10.066;2024-03-23T05:04:15;3.28;;;1.83;;
31368;SDS011;18004;48.416;10.066;2024-03-23T05:06:40;2.85;;;1.90;;
31368;SDS011;18004;48.416;10.066;2024-03-23T05:09:06;1.92;;;1.60;;
31368;SDS011;18004;48.416;10.066;2024-03-23T05:11:33;5.55;;;2.47;;
31368;SDS011;18004;48.416;10.066;2024-03-23T05:13:59;3.20;;;1.98;;
31368;SDS011;18004;48.416;10.066;2024-03-23T05:16:25;7.40;;;2.00;;
31368;SDS011;18004;48.416;10.066;2024-03-23T05:18:51;3.22;;;2.30;;
31368;SDS011;18004;48.416;10.066;2024-03-23T05:21:17;7.38;;;2.53;;
31368;SDS011;18004;48.416;10.066;2024-03-23T05:23:43;3.05;;;2.15;;
31368;SDS011;18004;48.416;10.066;2024-03-23T05:26:09;9.68;;;2.00;;
31368;SDS011;18004;48.416;10.066;2024-03-23T05:28:35;1.98;;;1.77;;
31368;SDS011;18004;48.416;10.066;2024-03-23T05:31:00;2.25;;;1.77;;
31368;SDS011;18004;48.416;10.066;2024-03-23T05:33:27;2.17;;;1.65;;
31368;SDS011;18004;48.416;10.066;2024-03-23T05:36:01;4.13;;;2.28;;
31368;SDS011;18004;48.416;10.066;2024-03-23T05:38:28;4.75;;;2.20;;
31368;SDS011;18004;48.416;10.066;2024-03-23T05:40:55;1.88;;;1.73;;
31368;SDS011;18004;48.416;10.066;2024-03-23T05:43:21;6.90;;;2.25;;
31368;SDS011;18004;48.416;10.066;2024-03-23T05:45:57;3.10;;;1.90;;
31368;SDS011;18004;48.416;10.066;2024-03-23T05:48:23;4.57;;;2.45;;
31368;SDS011;18004;48.416;10.066;2024-03-23T05:50:50;3.88;;;2.20;;
31368;SDS011;18004;48.416;10.066;2024-03-23T05:53:16;6.55;;;2.67;;
31368;SDS011;18004;48.416;10.066;2024-03-23T05:55:43;5.07;;;2.15;;
31368;SDS011;18004;48.416;10.066;2024-03-23T05:58:09;4.57;;;2.60;;
31368;SDS011;18004;48.416;10.066;2024-03-23T06:00:35;5.30;;;2.45;;
31368;SDS011;18004;48.416;10.066;2024-03-23T06:03:01;2.83;;;2.13;;
31368;SDS011;18004;48.416;10.066;2024-03-23T06:05:27;7.82;;;2.17;;
31368;SDS011;18004;48.416;10.066;2024-03-23T06:07:53;4.30;;;2.25;;
31368;SDS011;18004;48.416;10.066;2024-03-23T06:10:18;2.60;;;1.90;;
31368;SDS011;18004;48.416;10.066;2024-03-23T06:12:47;4.47;;;2.30;;
31368;SDS011;18004;48.416;10.066;2024-03-23T06:15:14;4.55;;;2.17;;
31368;SDS011;18004;48.416;10.066;2024-03-23T06:17:40;3.65;;;2.20;;
31368;SDS011;18004;48.416;10.066;2024-03-23T06:20:06;2.80;;;2.20;;
31368;SDS011;18004;48.416;10.066;2024-03-23T06:22:32;3.72;;;2.20;;
31368;SDS011;18004;48.416;10.066;2024-03-23T06:24:58;6.50;;;2.20;;
31368;SDS011;18004;48.416;10.066;2024-03-23T06:27:24;4.03;;;2.35;;
31368;SDS011;18004;48.416;10.066;2024-03-23T06:29:50;5.88;;;2.20;;
31368;SDS011;18004;48.416;10.066;2024-03-23T06:32:16;5.75;;;2.65;;
31368;SDS011;18004;48.416;10.066;2024-03-23T06:34:43;3.42;;;2.40;;
31368;SDS011;18004;48.416;10.066;2024-03-23T06:37:09;5.28;;;2.33;;
31368;SDS011;18004;48.416;10.066;2024-03-23T06:39:39;10.55;;;2.63;;
31368;SDS011;18004;48.416;10.066;2024-03-23T06:42:04;4.38;;;1.90;;
31368;SDS011;18004;48.416;10.066;2024-03-23T06:44:30;3.20;;;1.25;;
31368;SDS011;18004;48.416;10.066;2024-03-23T06:46:57;1.80;;;1.00;;
31368;SDS011;18004;48.416;10.066;2024-03-23T06:49:23;1.33;;;1.00;;
31368;SDS011;18004;48.416;10.066;2024-03-23T06:51:49;1.48;;;0.80;;
31368;SDS011;18004;48.416;10.066;2024-03-23T06:54:16;2.83;;;0.80;;
31368;SDS011;18004;48.416;10.066;2024-03-23T06:56:43;0.85;;;0.68;;
31368;SDS011;18004;48.416;10.066;2024-03-23T06:59:09;0.60;;;0.43;;
31368;SDS011;18004;48.416;10.066;2024-03-23T07:01:35;1.00;;;0.55;;
31368;SDS011;18004;48.416;10.066;2024-03-23T07:04:00;1.45;;;0.68;;
31368;SDS011;18004;48.416;10.066;2024-03-23T07:06:26;1.48;;;0.68;;
31368;SDS011;18004;48.416;10.066;2024-03-23T07:08:52;0.90;;;0.60;;
31368;SDS011;18004;48.416;10.066;2024-03-23T07:11:19;0.73;;;0.40;;
31368;SDS011;18004;48.416;10.066;2024-03-23T07:13:45;0.70;;;0.70;;
31368;SDS011;18004;48.416;10.066;2024-03-23T07:16:11;0.88;;;0.60;;
31368;SDS011;18004;48.416;10.066;2024-03-23T07:18:38;1.48;;;0.85;;
31368;SDS011;18004;48.416;10.066;2024-03-23T07:21:04;1.23;;;0.73;;
31368;SDS011;18004;48.416;10.066;2024-03-23T07:23:32;1.33;;;0.70;;
31368;SDS011;18004;48.416;10.066;2024-03-23T07:25:59;1.67;;;0.77;;
31368;SDS011;18004;48.416;10.066;2024-03-23T07:28:25;1.63;;;1.00;;
31368;SDS011;18004;48.416;10.066;2024-03-23T07:31:08;4.32;;;0.85;;
31368;SDS011;18004;48.416;10.066;2024-03-23T07:33:41;1.20;;;0.60;;
31368;SDS011;18004;48.416;10.066;2024-03-23T07:36:16;1.55;;;1.08;;
31368;SDS011;18004;48.416;10.066;2024-03-23T07:38:42;1.52;;;0.80;;
31368;SDS011;18004;48.416;10.066;2024-03-23T07:41:14;1.25;;;0.80;;
31368;SDS011;18004;48.416;10.066;2024-03-23T07:43:44;1.63;;;0.90;;
31368;SDS011;18004;48.416;10.066;2024-03-23T07:46:10;2.47;;;0.90;;
31368;SDS011;18004;48.416;10.066;2024-03-23T07:48:37;1.33;;;1.00;;
31368;SDS011;18004;48.416;10.066;2024-03-23T07:51:07;2.22;;;1.00;;
31368;SDS011;18004;48.416;10.066;2024-03-23T07:53:35;1.10;;;0.82;;
31368;SDS011;18004;48.416;10.066;2024-03-23T07:58:29;0.95;;;0.70;;
31368;SDS011;18004;48.416;10.066;2024-03-23T08:00:55;1.90;;;0.93;;
31368;SDS011;18004;48.416;10.066;2024-03-23T08:03:22;1.52;;;0.70;;
31368;SDS011;18004;48.416;10.066;2024-03-23T08:05:48;2.45;;;0.68;;
31368;SDS011;18004;48.416;10.066;2024-03-23T08:08:14;1.25;;;0.55;;
31368;SDS011;18004;48.416;10.066;2024-03-23T08:10:49;1.90;;;0.60;;
31368;SDS011;18004;48.416;10.066;2024-03-23T08:13:16;0.60;;;0.43;;
31368;SDS011;18004;48.416;10.066;2024-03-23T08:15:42;3.13;;;0.55;;
31368;SDS011;18004;48.416;10.066;2024-03-23T08:18:08;0.85;;;0.45;;
31368;SDS011;18004;48.416;10.066;2024-03-23T08:20:35;0.43;;;0.20;;
31368;SDS011;18004;48.416;10.066;2024-03-23T08:23:01;0.17;;;0.10;;
31368;SDS011;18004;48.416;10.066;2024-03-23T08:25:26;0.20;;;0.20;;
31368;SDS011;18004;48.416;10.066;2024-03-23T08:27:52;0.20;;;0.20;;
31368;SDS011;18004;48.416;10.066;2024-03-23T08:30:18;0.20;;;0.20;;
31368;SDS011;18004;48.416;10.066;2024-03-23T08:32:44;0.10;;;0.10;;
31368;SDS011;18004;48.416;10.066;2024-03-23T08:35:10;0.10;;;0.10;;
31368;SDS011;18004;48.416;10.066;2024-03-23T08:37:35;0.28;;;0.20;;
31368;SDS011;18004;48.416;10.066;2024-03-23T08:40:01;0.03;;;0.03;;
31368;SDS011;18004;48.416;10.066;2024-03-23T08:42:29;0.43;;;0.15;;
31368;SDS011;18004;48.416;10.066;2024-03-23T08:44:55;0.10;;;0.10;;
31368;SDS011;18004;48.416;10.066;2024-03-23T08:47:21;0.10;;;0.10;;
31368;SDS011;18004;48.416;10.066;2024-03-23T08:49:47;0.25;;;0.10;;
31368;SDS011;18004;48.416;10.066;2024-03-23T08:52:12;0.00;;;0.00;;
31368;SDS011;18004;48.416;10.066;2024-03-23T08:54:38;0.10;;;0.10;;
31368;SDS011;18004;48.416;10.066;2024-03-23T08:57:04;0.10;;;0.10;;
31368;SDS011;18004;48.416;10.066;2024-03-23T08:59:29;0.10;;;0.10;;
31368;SDS011;18004;48.416;10.066;2024-03-23T09:01:55;0.30;;;0.13;;
31368;SDS011;18004;48.416;10.066;2024-03-23T09:04:21;0.13;;;0.10;;
31368;SDS011;18004;48.416;10.066;2024-03-23T09:06:47;0.10;;;0.10;;
31368;SDS011;18004;48.416;10.066;2024-03-23T09:09:13;0.10;;;0.10;;
31368;SDS011;18004;48.416;10.066;2024-03-23T09:11:39;3.40;;;0.10;;
31368;SDS011;18004;48.416;10.066;2024-03-23T09:14:04;0.08;;;0.08;;
31368;SDS011;18004;48.416;10.066;2024-03-23T09:16:30;0.10;;;0.10;;
31368;SDS011;18004;48.416;10.066;2024-03-23T09:18:56;0.20;;;0.17;;
31368;SDS011;18004;48.416;10.066;2024-03-23T09:21:21;0.45;;;0.38;;
31368;SDS011;18004;48.416;10.066;2024-03-23T09:23:47;0.30;;;0.20;;
31368;SDS011;18004;48.416;10.066;2024-03-23T09:26:14;0.10;;;0.10;;
31368;SDS011;18004;48.416;10.066;2024-03-23T09:28:40;1.35;;;0.25;;
31368;SDS011;18004;48.416;10.066;2024-03-23T09:31:06;0.10;;;0.10;;
31368;SDS011;18004;48.416;10.066;2024-03-23T09:33:33;0.10;;;0.10;;
31368;SDS011;18004;48.416;10.066;2024-03-23T09:36:03;1.67;;;0.17;;
31368;SDS011;18004;48.416;10.066;2024-03-23T09:38:29;0.20;;;0.20;;
31368;SDS011;18004;48.416;10.066;2024-03-23T09:40:57;0.60;;;0.20;;
31368;SDS011;18004;48.416;10.066;2024-03-23T09:43:24;0.30;;;0.30;;
31368;SDS011;18004;48.416;10.066;2024-03-23T09:45:50;2.60;;;0.40;;
31368;SDS011;18004;48.416;10.066;2024-03-23T09:48:17;0.70;;;0.50;;
31368;SDS011;18004;48.416;10.066;2024-03-23T09:50:43;0.30;;;0.30;;
31368;SDS011;18004;48.416;10.066;2024-03-23T09:53:11;0.30;;;0.30;;
31368;SDS011;18004;48.416;10.066;2024-03-23T09:55:38;0.30;;;0.28;;
31368;SDS011;18004;48.416;10.066;2024-03-23T09:58:05;0.55;;;0.40;;
31368;SDS011;18004;48.416;10.066;2024-03-23T10:00:31;0.20;;;0.20;;
31368;SDS011;18004;48.416;10.066;2024-03-23T10:03:01;0.93;;;0.40;;
31368;SDS011;18004;48.416;10.066;2024-03-23T10:05:27;1.75;;;0.40;;
31368;SDS011;18004;48.416;10.066;2024-03-23T10:07:54;1.00;;;0.60;;
31368;SDS011;18004;48.416;10.066;2024-03-23T10:10:20;1.10;;;0.40;;
31368;SDS011;18004;48.416;10.066;2024-03-23T10:12:49;1.17;;;0.43;;
31368;SDS011;18004;48.416;10.066;2024-03-23T10:15:24;1.45;;;0.38;;
31368;SDS011;18004;48.416;10.066;2024-03-23T10:17:51;1.85;;;0.73;;
31368;SDS011;18004;48.416;10.066;2024-03-23T10:20:20;0.85;;;0.40;;
31368;SDS011;18004;48.416;10.066;2024-03-23T10:22:50;1.38;;;0.43;;
31368;SDS011;18004;48.416;10.066;2024-03-23T10:25:17;0.40;;;0.40;;
31368;SDS011;18004;48.416;10.066;2024-03-23T10:27:43;0.60;;;0.43;;
31368;SDS011;18004;48.416;10.066;2024-03-23T10:32:34;1.60;;;0.55;;
31368;SDS011;18004;48.416;10.066;2024-03-23T10:35:34;5.15;;;0.77;;
31368;SDS011;18004;48.416;10.066;2024-03-23T10:37:53;3.20;;;0.88;;
31368;SDS011;18004;48.416;10.066;2024-03-23T10:40:20;1.10;;;0.60;;
31368;SDS011;18004;48.416;10.066;2024-03-23T10:42:46;0.75;;;0.50;;
31368;SDS011;18004;48.416;10.066;2024-03-23T10:45:12;3.15;;;0.90;;
31368;SDS011;18004;48.416;10.066;2024-03-23T10:47:38;1.02;;;0.70;;
31368;SDS011;18004;48.416;10.066;2024-03-23T10:50:04;3.92;;;0.90;;
31368;SDS011;18004;48.416;10.066;2024-03-23T10:52:33;2.30;;;1.10;;
31368;SDS011;18004;48.416;10.066;2024-03-23T10:54:59;1.35;;;0.90;;
31368;SDS011;18004;48.416;10.066;2024-03-23T10:57:29;1.88;;;0.80;;
31368;SDS011;18004;48.416;10.066;2024-03-23T11:00:12;2.63;;;0.85;;
31368;SDS011;18004;48.416;10.066;2024-03-23T11:02:39;2.78;;;0.90;;
31368;SDS011;18004;48.416;10.066;2024-03-23T11:05:51;4.20;;;0.90;;
31368;SDS011;18004;48.416;10.066;2024-03-23T11:07:52;1.08;;;0.63;;
31368;SDS011;18004;48.416;10.066;2024-03-23T11:10:25;4.20;;;0.80;;
31368;SDS011;18004;48.416;10.066;2024-03-23T11:12:58;0.85;;;0.80;;
31368;SDS011;18004;48.416;10.066;2024-03-23T11:18:13;4.82;;;1.08;;
31368;SDS011;18004;48.416;10.066;2024-03-23T11:20:45;2.13;;;0.75;;
31368;SDS011;18004;48.416;10.066;2024-03-23T11:23:26;2.88;;;0.70;;
31368;SDS011;18004;48.416;10.066;2024-03-23T11:25:53;8.23;;;1.02;;
31368;SDS011;18004;48.416;10.066;2024-03-23T11:28:19;4.18;;;1.02;;
31368;SDS011;18004;48.416;10.066;2024-03-23T11:30:44;3.40;;;1.00;;
31368;SDS011;18004;48.416;10.066;2024-03-23T11:33:10;3.78;;;1.10;;
31368;SDS011;18004;48.416;10.066;2024-03-23T11:35:37;5.38;;;1.02;;
31368;SDS011;18004;48.416;10.066;2024-03-23T11:38:06;2.15;;;1.17;;
31368;SDS011;18004;48.416;10.066;2024-03-23T11:40:33;6.03;;;1.42;;
31368;SDS011;18004;48.416;10.066;2024-03-23T11:43:01;3.20;;;1.05;;
31368;SDS011;18004;48.416;10.066;2024-03-23T11:45:28;2.25;;;0.82;;
31368;SDS011;18004;48.416;10.066;2024-03-23T11:48:17;1.85;;;0.73;;
31368;SDS011;18004;48.416;10.066;2024-03-23T11:50:48;1.15;;;0.73;;
31368;SDS011;18004;48.416;10.066;2024-03-23T11:53:16;1.13;;;0.77;;
31368;SDS011;18004;48.416;10.066;2024-03-23T11:55:55;2.33;;;0.97;;
31368;SDS011;18004;48.416;10.066;2024-03-23T11:58:23;3.05;;;0.77;;
31368;SDS011;18004;48.416;10.066;2024-03-23T12:00:56;7.45;;;0.75;;
31368;SDS011;18004;48.416;10.066;2024-03-23T12:03:22;4.30;;;0.85;;
31368;SDS011;18004;48.416;10.066;2024-03-23T12:05:52;1.95;;;0.63;;
31368;SDS011;18004;48.416;10.066;2024-03-23T12:08:19;3.45;;;0.77;;
31368;SDS011;18004;48.416;10.066;2024-03-23T12:10:47;1.75;;;0.57;;
31368;SDS011;18004;48.416;10.066;2024-03-23T12:13:15;1.48;;;0.60;;
31368;SDS011;18004;48.416;10.066;2024-03-23T12:15:43;2.80;;;0.30;;
31368;SDS011;18004;48.416;10.066;2024-03-23T12:18:11;0.63;;;0.38;;
31368;SDS011;18004;48.416;10.066;2024-03-23T12:20:37;0.52;;;0.22;;
31368;SDS011;18004;48.416;10.066;2024-03-23T12:23:05;1.30;;;0.45;;
31368;SDS011;18004;48.416;10.066;2024-03-23T12:25:38;1.90;;;1.48;;
31368;SDS011;18004;48.416;10.066;2024-03-23T12:28:05;1.35;;;0.55;;
31368;SDS011;18004;48.416;10.066;2024-03-23T12:30:32;2.25;;;0.40;;
31368;SDS011;18004;48.416;10.066;2024-03-23T12:33:03;1.90;;;0.50;;
31368;SDS011;18004;48.416;10.066;2024-03-23T12:35:29;14.55;;;0.90;;
31368;SDS011;18004;48.416;10.066;2024-03-23T12:37:55;0.30;;;0.30;;
31368;SDS011;18004;48.416;10.066;2024-03-23T12:40:21;5.63;;;1.35;;
31368;SDS011;18004;48.416;10.066;2024-03-23T12:42:47;1.38;;;0.65;;
31368;SDS011;18004;48.416;10.066;2024-03-23T12:45:13;2.53;;;0.45;;
31368;SDS011;18004;48.416;10.066;2024-03-23T12:47:38;0.63;;;0.40;;
31368;SDS011;18004;48.416;10.066;2024-03-23T12:50:04;5.00;;;0.73;;
31368;SDS011;18004;48.416;10.066;2024-03-23T12:52:31;2.65;;;0.70;;
31368;SDS011;18004;48.416;10.066;2024-03-23T12:55:00;1.73;;;0.63;;
31368;SDS011;18004;48.416;10.066;2024-03-23T12:57:25;2.70;;;0.47;;
31368;SDS011;18004;48.416;10.066;2024-03-23T12:59:51;1.58;;;0.47;;
31368;SDS011;18004;48.416;10.066;2024-03-23T13:02:19;4.15;;;0.75;;
31368;SDS011;18004;48.416;10.066;2024-03-23T13:04:46;0.75;;;0.52;;
31368;SDS011;18004;48.416;10.066;2024-03-23T13:07:14;0.77;;;0.60;;
31368;SDS011;18004;48.416;10.066;2024-03-23T13:09:40;3.20;;;0.57;;
31368;SDS011;18004;48.416;10.066;2024-03-23T13:12:06;4.13;;;0.50;;
31368;SDS011;18004;48.416;10.066;2024-03-23T13:14:32;3.42;;;0.70;;
31368;SDS011;18004;48.416;10.066;2024-03-23T13:16:58;3.70;;;1.15;;
31368;SDS011;18004;48.416;10.066;2024-03-23T13:19:24;2.85;;;0.70;;
31368;SDS011;18004;48.416;10.066;2024-03-23T13:21:53;4.22;;;0.60;;
31368;SDS011;18004;48.416;10.066;2024-03-23T13:24:23;2.20;;;0.70;;
31368;SDS011;18004;48.416;10.066;2024-03-23T13:26:50;2.20;;;0.80;;
31368;SDS011;18004;48.416;10.066;2024-03-23T13:29:17;3.28;;;0.90;;
31368;SDS011;18004;48.416;10.066;2024-03-23T13:31:47;1.88;;;0.80;;
31368;SDS011;18004;48.416;10.066;2024-03-23T13:34:14;2.78;;;0.63;;
31368;SDS011;18004;48.416;10.066;2024-03-23T13:36:40;2.65;;;0.60;;
31368;SDS011;18004;48.416;10.066;2024-03-23T13:39:07;2.28;;;1.05;;
31368;SDS011;18004;48.416;10.066;2024-03-23T13:44:09;2.47;;;0.90;;
31368;SDS011;18004;48.416;10.066;2024-03-23T13:46:36;4.53;;;1.38;;
31368;SDS011;18004;48.416;10.066;2024-03-23T13:49:03;3.33;;;1.13;;
31368;SDS011;18004;48.416;10.066;2024-03-23T13:51:29;5.53;;;0.60;;
31368;SDS011;18004;48.416;10.066;2024-03-23T13:53:55;1.08;;;0.52;;
31368;SDS011;18004;48.416;10.066;2024-03-23T13:56:22;6.32;;;1.10;;
31368;SDS011;18004;48.416;10.066;2024-03-23T13:58:48;3.30;;;1.95;;
31368;SDS011;18004;48.416;10.066;2024-03-23T14:01:14;1.98;;;0.75;;
31368;SDS011;18004;48.416;10.066;2024-03-23T14:03:41;3.72;;;0.88;;
31368;SDS011;18004;48.416;10.066;2024-03-23T14:06:08;1.77;;;0.75;;
31368;SDS011;18004;48.416;10.066;2024-03-23T14:08:34;0.93;;;0.60;;
31368;SDS011;18004;48.416;10.066;2024-03-23T14:11:04;5.80;;;1.10;;
31368;SDS011;18004;48.416;10.066;2024-03-23T14:13:34;1.98;;;0.80;;
31368;SDS011;18004;48.416;10.066;2024-03-23T14:16:00;10.48;;;1.33;;
31368;SDS011;18004;48.416;10.066;2024-03-23T14:18:27;3.30;;;0.60;;
31368;SDS011;18004;48.416;10.066;2024-03-23T14:20:56;2.58;;;0.70;;
31368;SDS011;18004;48.416;10.066;2024-03-23T14:23:27;2.60;;;0.90;;
31368;SDS011;18004;48.416;10.066;2024-03-23T14:25:55;3.70;;;0.75;;
31368;SDS011;18004;48.416;10.066;2024-03-23T14:28:21;4.13;;;1.02;;
31368;SDS011;18004;48.416;10.066;2024-03-23T14:30:50;4.95;;;0.43;;
31368;SDS011;18004;48.416;10.066;2024-03-23T14:33:17;8.95;;;0.75;;
31368;SDS011;18004;48.416;10.066;2024-03-23T14:35:43;2.42;;;0.70;;
31368;SDS011;18004;48.416;10.066;2024-03-23T14:38:17;4.28;;;0.70;;
31368;SDS011;18004;48.416;10.066;2024-03-23T14:40:43;1.02;;;0.40;;
31368;SDS011;18004;48.416;10.066;2024-03-23T14:43:09;0.50;;;0.30;;
31368;SDS011;18004;48.416;10.066;2024-03-23T14:45:35;3.50;;;0.50;;
31368;SDS011;18004;48.416;10.066;2024-03-23T14:48:02;1.67;;;0.50;;
31368;SDS011;18004;48.416;10.066;2024-03-23T14:50:27;2.80;;;0.60;;
31368;SDS011;18004;48.416;10.066;2024-03-23T14:52:53;0.68;;;0.50;;
31368;SDS011;18004;48.416;10.066;2024-03-23T14:55:19;1.58;;;0.50;;
31368;SDS011;18004;48.416;10.066;2024-03-23T14:57:45;2.28;;;0.52;;
31368;SDS011;18004;48.416;10.066;2024-03-23T15:00:11;2.30;;;0.55;;
31368;SDS011;18004;48.416;10.066;2024-03-23T15:02:37;1.70;;;0.50;;
31368;SDS011;18004;48.416;10.066;2024-03-23T15:05:03;1.23;;;0.47;;
31368;SDS011;18004;48.416;10.066;2024-03-23T15:07:30;1.75;;;0.50;;
31368;SDS011;18004;48.416;10.066;2024-03-23T15:09:56;5.18;;;0.40;;
31368;SDS011;18004;48.416;10.066;2024-03-23T15:12:22;0.35;;;0.30;;
31368;SDS011;18004;48.416;10.066;2024-03-23T15:14:48;1.30;;;0.50;;
31368;SDS011;18004;48.416;10.066;2024-03-23T15:17:14;0.30;;;0.30;;
31368;SDS011;18004;48.416;10.066;2024-03-23T15:19:39;2.80;;;0.70;;
31368;SDS011;18004;48.416;10.066;2024-03-23T15:22:07;3.17;;;0.80;;
31368;SDS011;18004;48.416;10.066;2024-03-23T15:24:34;4.60;;;0.60;;
31368;SDS011;18004;48.416;10.066;2024-03-23T15:27:03;2.47;;;0.60;;
31368;SDS011;18004;48.416;10.066;2024-03-23T15:29:29;1.95;;;0.47;;
31368;SDS011;18004;48.416;10.066;2024-03-23T15:31:54;0.93;;;0.60;;
31368;SDS011;18004;48.416;10.066;2024-03-23T15:34:20;2.05;;;0.63;;
31368;SDS011;18004;48.416;10.066;2024-03-23T15:36:49;1.92;;;0.50;;